Terminal Aerodrome Forecast
Issued by NWS

Home | Current Version | Previous Version | Text Only | Print | Product List | Glossary On
Versions: 1 2 3 4 5 6 7 8 9 10 11 12 13 14 15 16
021
FTAK31 PAJN 261727
TAFASI
TAF
PASI 261727Z 2618/2718 09004KT P6SM SCT030 BKN100
     FM262100 VRB05KT P6SM VCSH BKN030 OVC080
     FM270300 32006KT P6SM SCT030 BKN080=

USA.gov is the U.S. government's official web portal to all federal, state and local government web resources and services.